createdAt,value
2022-12-14T00:00:30.894Z,0.35
2022-12-14T00:03:15.885Z,0.18
2022-12-14T00:05:59.763Z,0.46
2022-12-14T00:08:44.190Z,0.41
2022-12-14T00:11:29.818Z,0.61
2022-12-14T00:17:15.754Z,0.80
2022-12-14T00:19:59.949Z,0.94
2022-12-14T00:22:44.616Z,0.97
2022-12-14T00:25:28.362Z,0.86
2022-12-14T00:28:13.757Z,0.71
2022-12-14T00:31:00.894Z,0.37
2022-12-14T00:33:45.580Z,0.31
2022-12-14T00:36:31.832Z,0.42
2022-12-14T00:39:16.738Z,0.23
2022-12-14T00:42:00.978Z,-0.20
2022-12-14T00:44:46.452Z,0.04
2022-12-14T00:47:30.700Z,-0.33
2022-12-14T00:50:14.786Z,-0.29
2022-12-14T00:52:58.879Z,-0.58
2022-12-14T00:55:44.562Z,-0.28
2022-12-14T00:58:33.423Z,-0.19
2022-12-14T01:01:19.337Z,-0.87
2022-12-14T01:04:17.438Z,-0.29
2022-12-14T01:07:01.504Z,-0.61
2022-12-14T01:09:45.468Z,-0.39
2022-12-14T01:12:29.381Z,-0.42
2022-12-14T01:15:14.759Z,-0.43
2022-12-14T01:18:00.153Z,-0.69
2022-12-14T01:20:44.369Z,-0.50
2022-12-14T01:23:28.785Z,-0.71
2022-12-14T01:26:13.949Z,-0.74
2022-12-14T01:28:59.838Z,-0.65
2022-12-14T01:31:43.995Z,-0.64
2022-12-14T01:34:34.236Z,-0.81
2022-12-14T01:37:18.387Z,-0.79
2022-12-14T01:40:02.305Z,-0.76
2022-12-14T01:42:47.367Z,-1.53
2022-12-14T01:45:31.701Z,-1.50
2022-12-14T01:48:15.925Z,-1.28
2022-12-14T01:51:01.276Z,-1.50
2022-12-14T01:53:45.391Z,-0.96
2022-12-14T01:56:31.421Z,-0.84
2022-12-14T01:59:20.942Z,-1.09
2022-12-14T02:02:08.597Z,-0.47
2022-12-14T02:04:55.865Z,-0.94
2022-12-14T02:07:43.631Z,-0.61
2022-12-14T02:10:33.781Z,-0.59
2022-12-14T02:13:22.948Z,-0.58
2022-12-14T02:16:07.914Z,-0.41
2022-12-14T02:18:52.239Z,-0.85
2022-12-14T02:21:48.768Z,-0.79
2022-12-14T02:25:09.631Z,-0.10
2022-12-14T02:28:24.124Z,-0.77
2022-12-14T02:31:17.476Z,-0.22
2022-12-14T02:34:10.754Z,-0.30
2022-12-14T02:37:00.357Z,-0.43
2022-12-14T02:39:54.613Z,-0.44
2022-12-14T02:42:47.190Z,-0.86
2022-12-14T02:45:38.350Z,-0.88
2022-12-14T02:48:27.337Z,-0.95
2022-12-14T02:51:23.603Z,-0.62
2022-12-14T02:54:13.614Z,-0.55
2022-12-14T02:57:03.028Z,-0.23
2022-12-14T02:59:51.250Z,-0.15
2022-12-14T03:02:37.083Z,-0.22
2022-12-14T03:05:22.872Z,-0.22
2022-12-14T03:08:09.960Z,-0.09
2022-12-14T03:10:58.655Z,-0.06
2022-12-14T03:13:49.342Z,-0.18
2022-12-14T03:16:42.909Z,0.48
2022-12-14T03:19:31.663Z,0.55
2022-12-14T03:22:21.763Z,0.22
2022-12-14T03:25:10.880Z,0.01
2022-12-14T03:28:00.770Z,-0.27
2022-12-14T03:31:05.084Z,0.17
2022-12-14T03:33:53.078Z,-0.07
2022-12-14T03:36:42.191Z,0.13
2022-12-14T03:39:32.052Z,-0.30
2022-12-14T03:42:22.387Z,-0.10
2022-12-14T03:45:15.889Z,0.18
2022-12-14T03:48:09.242Z,0.58
2022-12-14T03:51:00.543Z,0.86
2022-12-14T03:53:51.429Z,0.60
2022-12-14T03:56:44.013Z,0.78
2022-12-14T03:59:37.751Z,0.96
2022-12-14T04:02:26.826Z,0.76
2022-12-14T04:05:16.674Z,0.82
2022-12-14T04:08:07.677Z,0.77
2022-12-14T04:11:11.386Z,0.95
2022-12-14T04:14:18.625Z,0.68
2022-12-14T04:17:23.964Z,1.16
2022-12-14T04:20:12.690Z,1.09
2022-12-14T04:23:06.417Z,1.39
2022-12-14T04:26:05.216Z,1.26
2022-12-14T04:29:12.524Z,1.25
2022-12-14T04:32:04.295Z,0.80
2022-12-14T04:34:52.324Z,1.08
2022-12-14T04:37:39.499Z,1.05
2022-12-14T04:40:27.109Z,0.88
2022-12-14T04:43:14.665Z,1.02
2022-12-14T04:46:05.259Z,1.16
2022-12-14T04:49:00.222Z,1.33
2022-12-14T04:51:50.390Z,1.29
2022-12-14T04:54:42.595Z,1.31
2022-12-14T04:57:32.496Z,1.44
2022-12-14T05:00:17.065Z,1.58
2022-12-14T05:03:18.394Z,1.61
2022-12-14T05:06:11.918Z,1.65
2022-12-14T05:09:14.373Z,1.92
2022-12-14T05:12:06.158Z,1.80
2022-12-14T05:14:54.098Z,1.64
2022-12-14T05:17:38.911Z,2.11
2022-12-14T05:20:24.972Z,2.31
2022-12-14T05:23:10.422Z,1.90
2022-12-14T05:25:54.386Z,1.88
2022-12-14T05:28:38.298Z,2.35
2022-12-14T05:31:22.457Z,1.78
2022-12-14T05:34:06.540Z,2.02
2022-12-14T05:36:50.477Z,1.98
2022-12-14T05:39:35.787Z,2.10
2022-12-14T05:42:19.679Z,2.04
2022-12-14T05:45:03.651Z,2.40
2022-12-14T05:47:48.130Z,2.29
2022-12-14T05:50:32.390Z,1.95
2022-12-14T05:53:16.412Z,1.98
2022-12-14T05:56:01.787Z,2.05
2022-12-14T05:58:45.829Z,1.25
2022-12-14T06:01:29.907Z,1.37
2022-12-14T06:04:15.802Z,1.81
2022-12-14T06:06:59.786Z,1.90
2022-12-14T06:09:43.691Z,2.16
2022-12-14T06:12:29.176Z,2.30
2022-12-14T06:15:14.159Z,1.96
2022-12-14T06:17:58.280Z,1.72
2022-12-14T06:20:42.483Z,2.30
2022-12-14T06:23:26.606Z,2.48
2022-12-14T06:26:11.607Z,2.65
2022-12-14T06:28:57.982Z,2.43
2022-12-14T06:31:41.903Z,2.78
2022-12-14T06:34:28.649Z,2.77
2022-12-14T06:37:13.123Z,3.15
2022-12-14T06:39:57.143Z,3.39
2022-12-14T06:42:41.104Z,3.42
2022-12-14T06:45:26.478Z,3.61
2022-12-14T06:48:10.607Z,3.62
2022-12-14T06:51:00.835Z,3.60
2022-12-14T06:53:44.888Z,3.97
2022-12-14T06:56:29.271Z,4.16
2022-12-14T06:59:14.486Z,4.51
2022-12-14T07:02:00.055Z,4.49
2022-12-14T07:04:44.353Z,4.53
2022-12-14T07:07:28.468Z,4.12
2022-12-14T07:10:13.577Z,4.64
2022-12-14T07:12:57.599Z,5.14
2022-12-14T07:15:41.678Z,4.74
2022-12-14T07:18:28.148Z,4.86
2022-12-14T07:21:13.843Z,5.16
2022-12-14T07:24:00.843Z,5.26
2022-12-14T07:26:44.927Z,5.30
2022-12-14T07:29:34.306Z,5.31
2022-12-14T07:32:18.900Z,5.72
2022-12-14T07:35:04.548Z,5.71
2022-12-14T07:37:50.723Z,5.62
2022-12-14T07:40:35.102Z,5.53
2022-12-14T07:43:18.937Z,5.43
2022-12-14T07:46:04.156Z,5.01
2022-12-14T07:48:49.948Z,5.35
2022-12-14T07:51:37.648Z,5.25
2022-12-14T07:54:21.389Z,4.58
2022-12-14T07:57:05.455Z,4.15
2022-12-14T07:59:52.946Z,4.08
2022-12-14T08:02:41.062Z,4.17
2022-12-14T08:05:24.842Z,4.74
2022-12-14T08:08:09.923Z,5.13
2022-12-14T08:10:53.693Z,5.54
2022-12-14T08:13:38.886Z,6.03
2022-12-14T08:16:23.199Z,6.30
2022-12-14T08:19:07.050Z,6.09
2022-12-14T08:21:50.816Z,5.99
2022-12-14T08:24:35.946Z,6.33
2022-12-14T08:27:19.635Z,6.27
2022-12-14T08:30:03.380Z,6.58
2022-12-14T08:32:47.754Z,6.86
2022-12-14T08:35:33.661Z,7.02
2022-12-14T08:38:17.607Z,7.18
2022-12-14T08:41:05.172Z,7.36
2022-12-14T08:43:51.657Z,7.44
2022-12-14T08:46:37.673Z,7.49
2022-12-14T08:49:21.487Z,7.11
2022-12-14T08:52:05.306Z,7.53
2022-12-14T08:54:49.100Z,7.75
2022-12-14T08:57:34.250Z,7.66
2022-12-14T09:00:18.486Z,7.23
2022-12-14T09:03:02.409Z,7.43
2022-12-14T09:05:46.210Z,7.64
2022-12-14T09:08:29.987Z,7.75
2022-12-14T09:11:15.251Z,7.79
2022-12-14T09:14:00.340Z,7.71
2022-12-14T09:16:44.130Z,8.03
2022-12-14T09:19:28.365Z,7.71
2022-12-14T09:22:13.472Z,7.81
2022-12-14T09:24:57.255Z,7.68
2022-12-14T09:27:41.037Z,8.10
2022-12-14T09:30:27.119Z,8.43
2022-12-14T09:33:11.025Z,8.52
2022-12-14T09:35:56.040Z,8.28
2022-12-14T09:38:43.081Z,8.45
2022-12-14T09:41:50.923Z,8.65
2022-12-14T09:44:54.221Z,8.41
2022-12-14T09:47:44.687Z,8.45
2022-12-14T09:50:30.169Z,8.33
2022-12-14T09:53:16.565Z,8.47
2022-12-14T09:56:00.601Z,8.13
2022-12-14T09:58:53.131Z,8.28
2022-12-14T10:02:30.362Z,8.19
2022-12-14T10:05:24.951Z,8.12
2022-12-14T10:08:17.033Z,8.16
2022-12-14T10:11:07.481Z,8.23
2022-12-14T10:14:06.630Z,8.64
2022-12-14T10:17:02.151Z,8.26
2022-12-14T10:19:53.691Z,8.45
2022-12-14T10:22:43.966Z,8.86
2022-12-14T10:25:29.627Z,9.15
2022-12-14T10:28:18.707Z,8.88
2022-12-14T10:31:03.860Z,9.02
2022-12-14T10:33:48.357Z,9.10
2022-12-14T10:36:40.676Z,8.74
2022-12-14T10:39:41.138Z,8.82
2022-12-14T10:42:32.030Z,8.24
2022-12-14T10:45:42.492Z,8.34
2022-12-14T10:48:48.990Z,8.62
2022-12-14T10:51:38.387Z,8.42
2022-12-14T10:54:31.673Z,8.06
2022-12-14T10:57:19.197Z,8.04
2022-12-14T11:00:09.587Z,8.01
2022-12-14T11:02:57.240Z,8.20
2022-12-14T11:05:48.008Z,8.50
2022-12-14T11:08:44.045Z,8.58
2022-12-14T11:11:33.976Z,8.46
2022-12-14T11:14:23.540Z,8.20
2022-12-14T11:17:07.574Z,8.41
2022-12-14T11:20:05.691Z,7.65
2022-12-14T11:22:51.675Z,8.21
2022-12-14T11:25:39.438Z,8.64
2022-12-14T11:28:36.585Z,8.10
2022-12-14T11:31:25.240Z,7.78
2022-12-14T11:34:23.372Z,8.20
2022-12-14T11:37:15.838Z,8.03
2022-12-14T11:40:01.901Z,8.18
2022-12-14T11:42:52.500Z,8.31
2022-12-14T11:45:38.353Z,8.27
2022-12-14T11:48:24.646Z,8.48
2022-12-14T11:51:13.244Z,8.31
2022-12-14T11:54:04.229Z,8.62
2022-12-14T11:56:51.527Z,8.60
2022-12-14T11:59:40.811Z,8.59
2022-12-14T12:02:30.263Z,8.92
2022-12-14T12:05:16.641Z,8.97
2022-12-14T12:08:02.389Z,9.35
2022-12-14T12:10:49.581Z,9.76
2022-12-14T12:13:39.367Z,9.79
2022-12-14T12:16:24.769Z,9.76
2022-12-14T12:19:13.692Z,9.70
2022-12-14T12:22:01.252Z,9.59
2022-12-14T12:28:11.672Z,8.85
2022-12-14T12:31:00.697Z,9.10
2022-12-14T12:33:49.117Z,8.87
2022-12-14T12:36:34.904Z,8.72
2022-12-14T12:39:22.914Z,8.91
2022-12-14T12:42:19.348Z,8.42
2022-12-14T12:45:09.332Z,8.86
2022-12-14T12:47:57.841Z,8.74
2022-12-14T12:50:49.917Z,8.95
2022-12-14T12:53:40.024Z,8.41
2022-12-14T12:56:28.361Z,8.66
2022-12-14T12:59:18.719Z,8.58
2022-12-14T13:02:18.128Z,8.91
2022-12-14T13:05:29.069Z,8.60
2022-12-14T13:08:19.426Z,8.50
2022-12-14T13:11:27.869Z,8.76
2022-12-14T13:14:29.236Z,8.58
2022-12-14T13:17:26.428Z,8.70
2022-12-14T13:20:21.030Z,8.65
2022-12-14T13:23:44.440Z,8.67
2022-12-14T13:26:55.677Z,8.50
2022-12-14T13:29:41.011Z,8.43
2022-12-14T13:32:43.378Z,8.65
2022-12-14T13:39:10.061Z,8.39
2022-12-14T13:42:03.197Z,8.49
2022-12-14T13:44:57.187Z,8.41
2022-12-14T13:47:44.213Z,8.67
2022-12-14T13:50:37.031Z,8.47
2022-12-14T13:53:28.899Z,8.43
2022-12-14T13:56:20.754Z,8.72
2022-12-14T13:59:22.401Z,8.50
2022-12-14T14:02:07.910Z,8.43
2022-12-14T14:04:51.744Z,8.49
2022-12-14T14:07:52.096Z,7.84
2022-12-14T14:10:38.290Z,8.28
2022-12-14T14:14:05.485Z,8.16
2022-12-14T14:16:56.136Z,8.43
2022-12-14T14:19:42.781Z,8.37
2022-12-14T14:22:33.465Z,7.85
2022-12-14T14:25:40.164Z,7.72
2022-12-14T14:28:31.720Z,7.87
2022-12-14T14:31:16.120Z,7.99
2022-12-14T14:34:01.868Z,8.02
2022-12-14T14:36:46.792Z,7.90
2022-12-14T14:39:56.533Z,7.73
2022-12-14T14:42:51.453Z,7.72
2022-12-14T14:45:40.121Z,7.81
2022-12-14T14:48:33.605Z,6.78
2022-12-14T14:51:22.250Z,7.61
2022-12-14T14:57:55.853Z,7.61
2022-12-14T15:00:42.686Z,7.51
2022-12-14T15:03:34.961Z,7.57
2022-12-14T15:06:24.459Z,7.46
2022-12-14T15:09:20.502Z,7.42
2022-12-14T15:12:20.284Z,7.77
2022-12-14T15:15:08.259Z,7.67
2022-12-14T15:17:52.504Z,7.44
2022-12-14T15:20:37.135Z,7.71
2022-12-14T15:23:23.298Z,7.99
2022-12-14T15:26:17.226Z,7.88
2022-12-14T15:29:04.714Z,7.71
2022-12-14T15:31:58.931Z,7.60
2022-12-14T15:34:53.363Z,7.98
2022-12-14T15:37:46.253Z,7.87
2022-12-14T15:40:32.687Z,7.78
2022-12-14T15:43:21.547Z,7.79
2022-12-14T15:46:17.163Z,7.89
2022-12-14T15:49:06.101Z,7.77
2022-12-14T15:52:12.576Z,7.58
2022-12-14T15:55:26.713Z,7.95
2022-12-14T15:58:20.743Z,7.55
2022-12-14T16:01:13.900Z,7.89
2022-12-14T16:04:05.674Z,7.45
2022-12-14T16:06:57.043Z,7.47
2022-12-14T16:09:44.609Z,7.72
2022-12-14T16:12:45.479Z,7.97
2022-12-14T16:15:32.559Z,8.23
2022-12-14T16:18:19.493Z,8.43
2022-12-14T16:21:06.268Z,7.82
2022-12-14T16:23:52.343Z,7.75
2022-12-14T16:26:39.180Z,7.38
2022-12-14T16:29:27.989Z,7.71
2022-12-14T16:32:17.858Z,7.93
2022-12-14T16:35:02.778Z,7.99
2022-12-14T16:37:53.395Z,8.03
2022-12-14T16:40:43.196Z,7.96
2022-12-14T16:43:34.072Z,7.50
2022-12-14T16:46:20.337Z,7.60
2022-12-14T16:49:33.225Z,7.78
2022-12-14T16:52:20.357Z,7.77
2022-12-14T16:55:11.994Z,8.09
2022-12-14T16:57:59.865Z,7.75
2022-12-14T17:00:57.614Z,7.79
2022-12-14T17:03:43.762Z,7.88
2022-12-14T17:06:41.018Z,7.47
2022-12-14T17:09:27.840Z,7.91
2022-12-14T17:12:15.706Z,7.83
2022-12-14T17:15:00.230Z,7.68
2022-12-14T17:17:49.296Z,7.60
2022-12-14T17:20:39.357Z,7.69
2022-12-14T17:23:25.677Z,7.63
2022-12-14T17:26:19.202Z,7.75
2022-12-14T17:29:03.689Z,8.01
2022-12-14T17:31:49.974Z,7.96
2022-12-14T17:34:34.498Z,8.08
2022-12-14T17:37:20.698Z,8.04
2022-12-14T17:40:08.423Z,8.10
2022-12-14T17:42:54.644Z,8.07
2022-12-14T17:45:38.666Z,8.16
2022-12-14T17:48:22.937Z,7.72
2022-12-14T17:51:07.467Z,8.11
2022-12-14T17:53:51.756Z,8.22
2022-12-14T17:56:37.291Z,8.14
2022-12-14T17:59:21.301Z,8.17
2022-12-14T18:02:05.398Z,8.16
2022-12-14T18:04:49.543Z,8.18
2022-12-14T18:07:33.924Z,8.42
2022-12-14T18:10:21.213Z,8.42
2022-12-14T18:13:06.944Z,8.89
2022-12-14T18:15:52.590Z,8.81
2022-12-14T18:18:40.799Z,8.75
2022-12-14T18:21:27.006Z,8.75
2022-12-14T18:24:15.554Z,8.78
2022-12-14T18:26:59.771Z,9.13
2022-12-14T18:29:45.424Z,8.99
2022-12-14T18:32:29.511Z,8.81
2022-12-14T18:35:18.734Z,8.34
2022-12-14T18:38:03.972Z,8.57
2022-12-14T18:40:50.231Z,8.86
2022-12-14T18:43:38.850Z,8.62
2022-12-14T18:46:28.159Z,8.47
2022-12-14T18:49:12.544Z,8.27
2022-12-14T18:51:56.700Z,8.93
2022-12-14T18:54:41.265Z,8.22
2022-12-14T18:57:25.537Z,8.94
2022-12-14T19:00:13.255Z,8.96
2022-12-14T19:03:01.391Z,9.08
2022-12-14T19:05:46.838Z,9.06
2022-12-14T19:08:31.256Z,9.16
2022-12-14T19:11:26.637Z,9.02
2022-12-14T19:14:11.345Z,9.05
2022-12-14T19:16:58.136Z,9.25
2022-12-14T19:19:44.672Z,9.02
2022-12-14T19:22:29.641Z,9.00
2022-12-14T19:25:20.204Z,9.27
2022-12-14T19:28:30.912Z,9.05
2022-12-14T19:31:11.301Z,8.89
2022-12-14T19:33:56.067Z,9.08
2022-12-14T19:36:41.723Z,8.29
2022-12-14T19:39:26.003Z,9.06
2022-12-14T19:42:10.169Z,8.89
2022-12-14T19:44:54.253Z,8.97
2022-12-14T19:47:38.470Z,8.97
2022-12-14T19:50:22.810Z,8.82
2022-12-14T19:53:08.468Z,9.14
2022-12-14T19:55:53.895Z,9.20
2022-12-14T19:58:38.981Z,9.20
2022-12-14T20:01:23.399Z,9.23
2022-12-14T20:04:08.609Z,9.32
2022-12-14T20:06:52.815Z,9.22
2022-12-14T20:09:38.739Z,9.24
2022-12-14T20:12:23.011Z,9.30
2022-12-14T20:15:07.939Z,9.31
2022-12-14T20:17:52.203Z,9.12
2022-12-14T20:20:36.299Z,8.87
2022-12-14T20:23:21.923Z,9.27
2022-12-14T20:26:09.600Z,9.21
2022-12-14T20:28:58.082Z,9.09
2022-12-14T20:31:42.513Z,9.04
2022-12-14T20:34:29.667Z,8.80
2022-12-14T20:37:14.178Z,9.19
2022-12-14T20:40:00.888Z,8.72
2022-12-14T20:42:49.139Z,9.02
2022-12-14T20:45:33.570Z,8.64
2022-12-14T20:48:17.783Z,9.13
2022-12-14T20:51:04.182Z,9.04
2022-12-14T20:53:49.216Z,8.51
2022-12-14T20:56:34.444Z,8.80
2022-12-14T20:59:20.282Z,9.06
2022-12-14T21:02:04.586Z,9.21
2022-12-14T21:04:48.605Z,9.05
2022-12-14T21:07:33.513Z,9.21
2022-12-14T21:10:17.439Z,9.08
2022-12-14T21:13:07.241Z,9.06
2022-12-14T21:15:52.932Z,8.59
2022-12-14T21:18:36.919Z,8.81
2022-12-14T21:21:20.849Z,9.08
2022-12-14T21:24:05.174Z,9.17
2022-12-14T21:26:49.135Z,9.13
2022-12-14T21:29:33.321Z,9.31
2022-12-14T21:32:19.457Z,9.24
2022-12-14T21:35:03.434Z,9.19
2022-12-14T21:37:47.436Z,9.34
2022-12-14T21:40:48.950Z,9.05
2022-12-14T21:43:33.154Z,9.32
2022-12-14T21:46:17.173Z,9.34
2022-12-14T21:49:02.343Z,9.41
2022-12-14T21:51:46.114Z,9.52
2022-12-14T21:54:33.565Z,9.39
2022-12-14T21:57:35.801Z,9.50
2022-12-14T22:00:20.564Z,9.27
2022-12-14T22:03:04.514Z,9.41
2022-12-14T22:05:49.619Z,9.47
2022-12-14T22:08:33.520Z,9.42
2022-12-14T22:11:17.345Z,9.17
2022-12-14T22:14:02.949Z,9.44
2022-12-14T22:16:47.016Z,9.53
2022-12-14T22:19:31.030Z,9.47
2022-12-14T22:22:18.052Z,9.26
2022-12-14T22:25:02.099Z,9.62
2022-12-14T22:27:49.769Z,9.61
2022-12-14T22:30:34.038Z,9.36
2022-12-14T22:33:17.784Z,9.03
2022-12-14T22:36:01.720Z,9.52
2022-12-14T22:38:46.957Z,9.44
2022-12-14T22:41:30.767Z,9.39
2022-12-14T22:44:14.573Z,9.57
2022-12-14T22:46:58.303Z,9.54
2022-12-14T22:49:42.095Z,8.79
2022-12-14T22:52:25.898Z,9.57
2022-12-14T22:55:11.986Z,9.66
2022-12-14T22:57:56.720Z,9.09
2022-12-14T23:00:40.692Z,9.39
2022-12-14T23:03:25.614Z,9.61
2022-12-14T23:06:15.619Z,9.65
2022-12-14T23:09:17.029Z,9.44
2022-12-14T23:12:21.911Z,9.33
2022-12-14T23:15:24.932Z,9.77
2022-12-14T23:18:27.079Z,9.75
2022-12-14T23:21:29.057Z,9.70
2022-12-14T23:24:30.679Z,9.84
2022-12-14T23:27:33.327Z,9.10
2022-12-14T23:30:34.720Z,9.67
2022-12-14T23:33:36.315Z,9.54
2022-12-14T23:36:37.344Z,9.34
2022-12-14T23:39:38.688Z,9.54
2022-12-14T23:42:41.146Z,9.46
2022-12-14T23:45:42.482Z,9.78
2022-12-14T23:48:43.333Z,9.61
2022-12-14T23:51:44.515Z,9.79
2022-12-14T23:54:45.777Z,9.55
2022-12-14T23:57:48.382Z,9.52
